sensor_id;sensor_type;location;lat;lon;timestamp;temperature;humidity
2955;DHT22;1487;51.470;6.938;2023-07-13T00:01:35;17.00;99.90
2955;DHT22;1487;51.470;6.938;2023-07-13T00:04:04;17.00;99.90
2955;DHT22;1487;51.470;6.938;2023-07-13T00:06:31;16.90;99.90
2955;DHT22;1487;51.470;6.938;2023-07-13T00:08:59;16.90;99.90
2955;DHT22;1487;51.470;6.938;2023-07-13T00:11:26;16.90;99.90
2955;DHT22;1487;51.470;6.938;2023-07-13T00:13:53;16.80;99.90
2955;DHT22;1487;51.470;6.938;2023-07-13T00:16:20;16.80;99.90
2955;DHT22;1487;51.470;6.938;2023-07-13T00:18:47;16.80;99.90
2955;DHT22;1487;51.470;6.938;2023-07-13T00:21:14;16.70;99.90
2955;DHT22;1487;51.470;6.938;2023-07-13T00:23:42;16.70;99.90
2955;DHT22;1487;51.470;6.938;2023-07-13T00:26:11;16.70;99.90
2955;DHT22;1487;51.470;6.938;2023-07-13T00:28:39;16.70;99.90
2955;DHT22;1487;51.470;6.938;2023-07-13T00:31:07;16.70;99.90
2955;DHT22;1487;51.470;6.938;2023-07-13T00:33:34;16.60;99.90
2955;DHT22;1487;51.470;6.938;2023-07-13T00:36:01;16.60;99.90
2955;DHT22;1487;51.470;6.938;2023-07-13T00:38:28;16.50;99.90
2955;DHT22;1487;51.470;6.938;2023-07-13T00:40:55;16.50;99.90
2955;DHT22;1487;51.470;6.938;2023-07-13T00:43:26;16.50;99.90
2955;DHT22;1487;51.470;6.938;2023-07-13T00:46:16;16.50;99.90
2955;DHT22;1487;51.470;6.938;2023-07-13T00:48:45;16.60;99.90
2955;DHT22;1487;51.470;6.938;2023-07-13T00:51:14;16.60;99.90
2955;DHT22;1487;51.470;6.938;2023-07-13T00:53:42;16.60;99.90
2955;DHT22;1487;51.470;6.938;2023-07-13T00:56:09;16.50;99.90
2955;DHT22;1487;51.470;6.938;2023-07-13T00:58:38;16.50;99.90
2955;DHT22;1487;51.470;6.938;2023-07-13T01:01:05;16.50;99.90
2955;DHT22;1487;51.470;6.938;2023-07-13T01:03:32;16.50;99.90
2955;DHT22;1487;51.470;6.938;2023-07-13T01:06:01;16.50;99.90
2955;DHT22;1487;51.470;6.938;2023-07-13T01:08:27;16.30;99.90
2955;DHT22;1487;51.470;6.938;2023-07-13T01:10:56;16.30;99.90
2955;DHT22;1487;51.470;6.938;2023-07-13T01:13:23;16.30;99.90
2955;DHT22;1487;51.470;6.938;2023-07-13T01:15:53;16.20;99.90
2955;DHT22;1487;51.470;6.938;2023-07-13T01:18:24;16.20;99.90
2955;DHT22;1487;51.470;6.938;2023-07-13T01:20:54;16.20;99.90
2955;DHT22;1487;51.470;6.938;2023-07-13T01:23:23;16.10;99.90
2955;DHT22;1487;51.470;6.938;2023-07-13T01:25:50;16.10;99.90
2955;DHT22;1487;51.470;6.938;2023-07-13T01:28:17;16.00;99.90
2955;DHT22;1487;51.470;6.938;2023-07-13T01:30:45;16.00;99.90
2955;DHT22;1487;51.470;6.938;2023-07-13T01:33:14;16.00;99.90
2955;DHT22;1487;51.470;6.938;2023-07-13T01:35:42;16.00;99.90
2955;DHT22;1487;51.470;6.938;2023-07-13T01:38:11;16.00;99.90
2955;DHT22;1487;51.470;6.938;2023-07-13T01:40:38;15.90;99.90
2955;DHT22;1487;51.470;6.938;2023-07-13T01:43:06;15.90;99.90
2955;DHT22;1487;51.470;6.938;2023-07-13T01:45:32;15.90;99.90
2955;DHT22;1487;51.470;6.938;2023-07-13T01:47:59;15.90;99.90
2955;DHT22;1487;51.470;6.938;2023-07-13T01:50:27;15.80;99.90
2955;DHT22;1487;51.470;6.938;2023-07-13T01:52:53;15.80;99.90
2955;DHT22;1487;51.470;6.938;2023-07-13T01:55:22;15.80;99.90
2955;DHT22;1487;51.470;6.938;2023-07-13T01:57:49;15.80;99.90
2955;DHT22;1487;51.470;6.938;2023-07-13T02:00:16;15.80;99.90
2955;DHT22;1487;51.470;6.938;2023-07-13T02:02:43;15.70;99.90
2955;DHT22;1487;51.470;6.938;2023-07-13T02:05:10;15.70;99.90
2955;DHT22;1487;51.470;6.938;2023-07-13T02:07:37;15.60;99.90
2955;DHT22;1487;51.470;6.938;2023-07-13T02:10:04;15.60;99.90
2955;DHT22;1487;51.470;6.938;2023-07-13T02:12:33;15.50;99.90
2955;DHT22;1487;51.470;6.938;2023-07-13T02:14:59;15.50;99.90
2955;DHT22;1487;51.470;6.938;2023-07-13T02:17:26;15.60;99.90
2955;DHT22;1487;51.470;6.938;2023-07-13T02:19:53;15.60;99.90
2955;DHT22;1487;51.470;6.938;2023-07-13T02:22:20;15.60;99.90
2955;DHT22;1487;51.470;6.938;2023-07-13T02:24:47;15.60;99.90
2955;DHT22;1487;51.470;6.938;2023-07-13T02:27:14;15.60;99.90
2955;DHT22;1487;51.470;6.938;2023-07-13T02:29:43;15.50;99.90
2955;DHT22;1487;51.470;6.938;2023-07-13T02:32:10;15.50;99.90
2955;DHT22;1487;51.470;6.938;2023-07-13T02:34:36;15.40;99.90
2955;DHT22;1487;51.470;6.938;2023-07-13T02:37:04;15.40;99.90
2955;DHT22;1487;51.470;6.938;2023-07-13T02:39:30;15.40;99.90
2955;DHT22;1487;51.470;6.938;2023-07-13T02:41:59;15.30;99.90
2955;DHT22;1487;51.470;6.938;2023-07-13T02:44:26;15.30;99.90
2955;DHT22;1487;51.470;6.938;2023-07-13T02:46:54;15.30;99.90
2955;DHT22;1487;51.470;6.938;2023-07-13T02:49:21;15.30;99.90
2955;DHT22;1487;51.470;6.938;2023-07-13T02:51:48;15.30;99.90
2955;DHT22;1487;51.470;6.938;2023-07-13T02:54:15;15.30;99.90
2955;DHT22;1487;51.470;6.938;2023-07-13T02:56:42;15.30;99.90
2955;DHT22;1487;51.470;6.938;2023-07-13T02:59:09;15.30;99.90
2955;DHT22;1487;51.470;6.938;2023-07-13T03:01:36;15.30;99.90
2955;DHT22;1487;51.470;6.938;2023-07-13T03:04:05;15.30;99.90
2955;DHT22;1487;51.470;6.938;2023-07-13T03:06:32;15.30;99.90
2955;DHT22;1487;51.470;6.938;2023-07-13T03:08:59;15.30;99.90
2955;DHT22;1487;51.470;6.938;2023-07-13T03:11:26;15.30;99.90
2955;DHT22;1487;51.470;6.938;2023-07-13T03:13:53;15.30;99.90
2955;DHT22;1487;51.470;6.938;2023-07-13T03:16:20;15.30;99.90
2955;DHT22;1487;51.470;6.938;2023-07-13T03:18:47;15.20;99.90
2955;DHT22;1487;51.470;6.938;2023-07-13T03:21:16;15.20;99.90
2955;DHT22;1487;51.470;6.938;2023-07-13T03:23:43;15.20;99.90
2955;DHT22;1487;51.470;6.938;2023-07-13T03:26:11;15.20;99.90
2955;DHT22;1487;51.470;6.938;2023-07-13T03:28:39;15.10;99.90
2955;DHT22;1487;51.470;6.938;2023-07-13T03:31:07;15.10;99.90
2955;DHT22;1487;51.470;6.938;2023-07-13T03:33:35;15.10;99.90
2955;DHT22;1487;51.470;6.938;2023-07-13T03:36:03;15.10;99.90
2955;DHT22;1487;51.470;6.938;2023-07-13T03:38:31;15.10;99.90
2955;DHT22;1487;51.470;6.938;2023-07-13T03:40:58;15.10;99.90
2955;DHT22;1487;51.470;6.938;2023-07-13T03:43:26;15.10;99.90
2955;DHT22;1487;51.470;6.938;2023-07-13T03:45:52;15.20;99.90
2955;DHT22;1487;51.470;6.938;2023-07-13T03:48:19;15.20;99.90
2955;DHT22;1487;51.470;6.938;2023-07-13T03:50:47;15.30;99.90
2955;DHT22;1487;51.470;6.938;2023-07-13T03:53:14;15.30;99.90
2955;DHT22;1487;51.470;6.938;2023-07-13T03:55:42;15.40;99.90
2955;DHT22;1487;51.470;6.938;2023-07-13T03:58:34;15.40;99.90
2955;DHT22;1487;51.470;6.938;2023-07-13T04:01:03;15.40;99.90
2955;DHT22;1487;51.470;6.938;2023-07-13T04:03:31;15.40;99.90
2955;DHT22;1487;51.470;6.938;2023-07-13T04:05:58;15.40;99.90
2955;DHT22;1487;51.470;6.938;2023-07-13T04:08:27;15.30;99.90
2955;DHT22;1487;51.470;6.938;2023-07-13T04:10:55;15.30;99.90
2955;DHT22;1487;51.470;6.938;2023-07-13T04:13:23;15.30;99.90
2955;DHT22;1487;51.470;6.938;2023-07-13T04:15:50;15.30;99.90
2955;DHT22;1487;51.470;6.938;2023-07-13T04:18:17;15.30;99.90
2955;DHT22;1487;51.470;6.938;2023-07-13T04:20:45;15.40;99.90
2955;DHT22;1487;51.470;6.938;2023-07-13T04:23:12;15.40;99.90
2955;DHT22;1487;51.470;6.938;2023-07-13T04:25:39;15.50;99.90
2955;DHT22;1487;51.470;6.938;2023-07-13T04:28:07;15.50;99.90
2955;DHT22;1487;51.470;6.938;2023-07-13T04:30:33;15.50;99.90
2955;DHT22;1487;51.470;6.938;2023-07-13T04:33:00;15.60;99.90
2955;DHT22;1487;51.470;6.938;2023-07-13T04:35:27;15.60;99.90
2955;DHT22;1487;51.470;6.938;2023-07-13T04:37:54;15.70;99.90
2955;DHT22;1487;51.470;6.938;2023-07-13T04:40:21;15.70;99.90
2955;DHT22;1487;51.470;6.938;2023-07-13T04:42:48;15.80;99.90
2955;DHT22;1487;51.470;6.938;2023-07-13T04:45:16;15.80;99.90
2955;DHT22;1487;51.470;6.938;2023-07-13T04:47:43;15.80;99.90
2955;DHT22;1487;51.470;6.938;2023-07-13T04:50:12;15.90;99.90
2955;DHT22;1487;51.470;6.938;2023-07-13T04:52:40;15.80;99.90
2955;DHT22;1487;51.470;6.938;2023-07-13T04:55:08;15.90;99.90
2955;DHT22;1487;51.470;6.938;2023-07-13T04:57:34;15.90;99.90
2955;DHT22;1487;51.470;6.938;2023-07-13T05:00:01;15.80;99.90
2955;DHT22;1487;51.470;6.938;2023-07-13T05:02:33;15.90;99.90
2955;DHT22;1487;51.470;6.938;2023-07-13T05:05:00;15.90;99.90
2955;DHT22;1487;51.470;6.938;2023-07-13T05:07:29;15.90;99.90
2955;DHT22;1487;51.470;6.938;2023-07-13T05:09:55;15.90;99.90
2955;DHT22;1487;51.470;6.938;2023-07-13T05:12:22;16.00;99.90
2955;DHT22;1487;51.470;6.938;2023-07-13T05:14:49;16.00;99.90
2955;DHT22;1487;51.470;6.938;2023-07-13T05:17:16;16.00;99.90
2955;DHT22;1487;51.470;6.938;2023-07-13T05:19:44;16.00;99.90
2955;DHT22;1487;51.470;6.938;2023-07-13T05:22:11;16.10;99.90
2955;DHT22;1487;51.470;6.938;2023-07-13T05:24:38;16.00;99.90
2955;DHT22;1487;51.470;6.938;2023-07-13T05:27:05;16.00;99.90
2955;DHT22;1487;51.470;6.938;2023-07-13T05:29:32;16.00;99.90
2955;DHT22;1487;51.470;6.938;2023-07-13T05:31:59;16.10;99.90
2955;DHT22;1487;51.470;6.938;2023-07-13T05:34:26;16.20;99.90
2955;DHT22;1487;51.470;6.938;2023-07-13T05:36:54;16.30;99.90
2955;DHT22;1487;51.470;6.938;2023-07-13T05:39:21;16.30;99.90
2955;DHT22;1487;51.470;6.938;2023-07-13T05:41:48;16.50;99.90
2955;DHT22;1487;51.470;6.938;2023-07-13T05:44:15;16.60;99.90
2955;DHT22;1487;51.470;6.938;2023-07-13T05:46:41;16.70;99.90
2955;DHT22;1487;51.470;6.938;2023-07-13T05:49:08;16.80;99.90
2955;DHT22;1487;51.470;6.938;2023-07-13T05:51:35;16.80;99.90
2955;DHT22;1487;51.470;6.938;2023-07-13T05:54:03;16.80;99.90
2955;DHT22;1487;51.470;6.938;2023-07-13T05:56:30;16.70;99.90
2955;DHT22;1487;51.470;6.938;2023-07-13T05:58:56;16.70;99.90
2955;DHT22;1487;51.470;6.938;2023-07-13T06:01:23;16.70;99.90
2955;DHT22;1487;51.470;6.938;2023-07-13T06:03:50;16.80;99.90
2955;DHT22;1487;51.470;6.938;2023-07-13T06:06:17;16.80;99.90
2955;DHT22;1487;51.470;6.938;2023-07-13T06:08:44;16.70;99.90
2955;DHT22;1487;51.470;6.938;2023-07-13T06:11:14;16.70;99.90
2955;DHT22;1487;51.470;6.938;2023-07-13T06:13:41;16.90;99.90
2955;DHT22;1487;51.470;6.938;2023-07-13T06:16:08;16.90;99.90
2955;DHT22;1487;51.470;6.938;2023-07-13T06:18:36;16.90;99.90
2955;DHT22;1487;51.470;6.938;2023-07-13T06:21:06;17.10;99.90
2955;DHT22;1487;51.470;6.938;2023-07-13T06:23:33;17.10;99.90
2955;DHT22;1487;51.470;6.938;2023-07-13T06:26:00;17.20;99.90
2955;DHT22;1487;51.470;6.938;2023-07-13T06:28:29;17.40;99.90
2955;DHT22;1487;51.470;6.938;2023-07-13T06:30:56;17.50;99.90
2955;DHT22;1487;51.470;6.938;2023-07-13T06:33:23;17.70;99.90
2955;DHT22;1487;51.470;6.938;2023-07-13T06:35:50;17.90;99.90
2955;DHT22;1487;51.470;6.938;2023-07-13T06:38:17;18.20;99.90
2955;DHT22;1487;51.470;6.938;2023-07-13T06:40:44;18.30;99.90
2955;DHT22;1487;51.470;6.938;2023-07-13T06:43:10;18.40;99.90
2955;DHT22;1487;51.470;6.938;2023-07-13T06:45:44;18.40;99.90
2955;DHT22;1487;51.470;6.938;2023-07-13T06:48:12;18.70;99.90
2955;DHT22;1487;51.470;6.938;2023-07-13T06:50:40;19.20;99.90
2955;DHT22;1487;51.470;6.938;2023-07-13T06:53:07;19.70;99.90
2955;DHT22;1487;51.470;6.938;2023-07-13T06:55:34;19.90;99.90
2955;DHT22;1487;51.470;6.938;2023-07-13T06:58:01;20.20;99.90
2955;DHT22;1487;51.470;6.938;2023-07-13T07:00:27;20.50;99.90
2955;DHT22;1487;51.470;6.938;2023-07-13T07:02:55;20.80;99.90
2955;DHT22;1487;51.470;6.938;2023-07-13T07:05:22;21.00;99.90
2955;DHT22;1487;51.470;6.938;2023-07-13T07:07:49;20.60;99.90
2955;DHT22;1487;51.470;6.938;2023-07-13T07:10:16;20.30;99.90
2955;DHT22;1487;51.470;6.938;2023-07-13T07:12:43;19.70;99.90
2955;DHT22;1487;51.470;6.938;2023-07-13T07:15:10;19.50;99.90
2955;DHT22;1487;51.470;6.938;2023-07-13T07:17:37;19.20;99.90
2955;DHT22;1487;51.470;6.938;2023-07-13T07:20:06;19.00;99.90
2955;DHT22;1487;51.470;6.938;2023-07-13T07:22:33;18.90;99.90
2955;DHT22;1487;51.470;6.938;2023-07-13T07:25:00;18.70;99.90
2955;DHT22;1487;51.470;6.938;2023-07-13T07:27:27;18.40;99.90
2955;DHT22;1487;51.470;6.938;2023-07-13T07:29:54;18.60;99.90
2955;DHT22;1487;51.470;6.938;2023-07-13T07:32:23;19.20;99.90
2955;DHT22;1487;51.470;6.938;2023-07-13T07:34:50;19.70;99.90
2955;DHT22;1487;51.470;6.938;2023-07-13T07:37:18;20.70;99.90
2955;DHT22;1487;51.470;6.938;2023-07-13T07:39:45;21.30;99.90
2955;DHT22;1487;51.470;6.938;2023-07-13T07:42:12;21.70;99.90
2955;DHT22;1487;51.470;6.938;2023-07-13T07:44:40;21.60;99.90
2955;DHT22;1487;51.470;6.938;2023-07-13T07:47:06;22.00;99.90
2955;DHT22;1487;51.470;6.938;2023-07-13T07:49:33;22.20;99.90
2955;DHT22;1487;51.470;6.938;2023-07-13T07:52:00;22.30;99.90
2955;DHT22;1487;51.470;6.938;2023-07-13T07:54:28;22.50;99.90
2955;DHT22;1487;51.470;6.938;2023-07-13T07:56:55;22.80;99.90
2955;DHT22;1487;51.470;6.938;2023-07-13T07:59:22;22.50;99.90
2955;DHT22;1487;51.470;6.938;2023-07-13T08:01:49;22.60;99.90
2955;DHT22;1487;51.470;6.938;2023-07-13T08:04:16;22.80;99.90
2955;DHT22;1487;51.470;6.938;2023-07-13T08:06:42;23.10;99.90
2955;DHT22;1487;51.470;6.938;2023-07-13T08:09:09;23.70;99.90
2955;DHT22;1487;51.470;6.938;2023-07-13T08:11:37;23.20;99.90
2955;DHT22;1487;51.470;6.938;2023-07-13T08:14:04;23.30;99.90
2955;DHT22;1487;51.470;6.938;2023-07-13T08:16:31;23.20;99.90
2955;DHT22;1487;51.470;6.938;2023-07-13T08:18:58;23.30;99.90
2955;DHT22;1487;51.470;6.938;2023-07-13T08:21:25;23.30;99.90
2955;DHT22;1487;51.470;6.938;2023-07-13T08:23:52;23.40;99.90
2955;DHT22;1487;51.470;6.938;2023-07-13T08:26:18;23.40;99.90
2955;DHT22;1487;51.470;6.938;2023-07-13T08:28:46;23.70;99.90
2955;DHT22;1487;51.470;6.938;2023-07-13T08:31:13;23.80;99.90
2955;DHT22;1487;51.470;6.938;2023-07-13T08:33:40;23.80;99.90
2955;DHT22;1487;51.470;6.938;2023-07-13T08:36:07;24.20;99.90
2955;DHT22;1487;51.470;6.938;2023-07-13T08:38:34;24.10;99.90
2955;DHT22;1487;51.470;6.938;2023-07-13T08:41:10;23.70;99.90
2955;DHT22;1487;51.470;6.938;2023-07-13T08:43:38;23.70;99.90
2955;DHT22;1487;51.470;6.938;2023-07-13T08:46:11;23.80;99.90
2955;DHT22;1487;51.470;6.938;2023-07-13T08:48:42;23.90;99.90
2955;DHT22;1487;51.470;6.938;2023-07-13T08:51:21;24.20;99.90
2955;DHT22;1487;51.470;6.938;2023-07-13T08:53:54;24.70;99.90
2955;DHT22;1487;51.470;6.938;2023-07-13T08:56:25;24.20;99.90
2955;DHT22;1487;51.470;6.938;2023-07-13T08:58:55;24.20;99.90
2955;DHT22;1487;51.470;6.938;2023-07-13T09:01:28;24.00;99.90
2955;DHT22;1487;51.470;6.938;2023-07-13T09:04:02;23.20;99.90
2955;DHT22;1487;51.470;6.938;2023-07-13T09:06:36;22.60;99.90
2955;DHT22;1487;51.470;6.938;2023-07-13T09:09:12;22.50;99.90
2955;DHT22;1487;51.470;6.938;2023-07-13T09:11:49;22.20;99.90
2955;DHT22;1487;51.470;6.938;2023-07-13T09:14:41;22.90;99.90
2955;DHT22;1487;51.470;6.938;2023-07-13T09:17:14;23.60;99.90
2955;DHT22;1487;51.470;6.938;2023-07-13T09:19:43;24.00;99.90
2955;DHT22;1487;51.470;6.938;2023-07-13T09:22:16;25.00;99.90
2955;DHT22;1487;51.470;6.938;2023-07-13T09:24:52;25.00;99.90
2955;DHT22;1487;51.470;6.938;2023-07-13T09:27:22;24.90;99.90
2955;DHT22;1487;51.470;6.938;2023-07-13T09:29:55;24.00;99.90
2955;DHT22;1487;51.470;6.938;2023-07-13T09:32:26;23.80;99.90
2955;DHT22;1487;51.470;6.938;2023-07-13T09:34:54;24.30;99.90
2955;DHT22;1487;51.470;6.938;2023-07-13T09:37:23;24.70;99.90
2955;DHT22;1487;51.470;6.938;2023-07-13T09:39:54;24.30;99.90
2955;DHT22;1487;51.470;6.938;2023-07-13T09:42:23;24.20;99.90
2955;DHT22;1487;51.470;6.938;2023-07-13T09:44:53;24.00;99.90
2955;DHT22;1487;51.470;6.938;2023-07-13T09:47:22;24.50;99.90
2955;DHT22;1487;51.470;6.938;2023-07-13T09:49:56;25.70;99.90
2955;DHT22;1487;51.470;6.938;2023-07-13T09:52:24;25.40;99.90
2955;DHT22;1487;51.470;6.938;2023-07-13T09:54:52;25.30;99.90
2955;DHT22;1487;51.470;6.938;2023-07-13T09:57:25;25.70;99.90
2955;DHT22;1487;51.470;6.938;2023-07-13T09:59:54;26.10;99.90
2955;DHT22;1487;51.470;6.938;2023-07-13T10:02:28;26.20;99.90
2955;DHT22;1487;51.470;6.938;2023-07-13T10:05:00;26.00;99.90
2955;DHT22;1487;51.470;6.938;2023-07-13T10:07:29;24.70;99.90
2955;DHT22;1487;51.470;6.938;2023-07-13T10:09:57;23.70;99.90
2955;DHT22;1487;51.470;6.938;2023-07-13T10:12:27;23.30;99.90
2955;DHT22;1487;51.470;6.938;2023-07-13T10:14:55;23.10;99.90
2955;DHT22;1487;51.470;6.938;2023-07-13T10:17:28;22.60;99.90
2955;DHT22;1487;51.470;6.938;2023-07-13T10:19:59;22.20;99.90
2955;DHT22;1487;51.470;6.938;2023-07-13T10:22:44;23.10;99.90
2955;DHT22;1487;51.470;6.938;2023-07-13T10:25:18;24.30;99.90
2955;DHT22;1487;51.470;6.938;2023-07-13T10:27:47;25.60;99.90
2955;DHT22;1487;51.470;6.938;2023-07-13T10:30:19;26.90;99.80
2955;DHT22;1487;51.470;6.938;2023-07-13T10:32:46;26.80;96.00
2955;DHT22;1487;51.470;6.938;2023-07-13T10:35:17;26.00;95.00
2955;DHT22;1487;51.470;6.938;2023-07-13T10:37:48;25.40;99.90
2955;DHT22;1487;51.470;6.938;2023-07-13T10:40:19;24.70;99.90
2955;DHT22;1487;51.470;6.938;2023-07-13T10:42:50;23.90;99.90
2955;DHT22;1487;51.470;6.938;2023-07-13T10:45:20;23.20;99.90
2955;DHT22;1487;51.470;6.938;2023-07-13T10:47:48;22.70;99.90
2955;DHT22;1487;51.470;6.938;2023-07-13T10:50:22;22.40;99.90
2955;DHT22;1487;51.470;6.938;2023-07-13T10:52:52;22.90;99.90
2955;DHT22;1487;51.470;6.938;2023-07-13T10:55:37;23.40;99.90
2955;DHT22;1487;51.470;6.938;2023-07-13T10:58:13;23.60;99.90
2955;DHT22;1487;51.470;6.938;2023-07-13T11:00:47;23.90;99.90
2955;DHT22;1487;51.470;6.938;2023-07-13T11:03:17;24.50;99.90
2955;DHT22;1487;51.470;6.938;2023-07-13T11:08:33;25.60;99.90
2955;DHT22;1487;51.470;6.938;2023-07-13T11:11:02;25.60;97.60
2955;DHT22;1487;51.470;6.938;2023-07-13T11:13:57;25.80;94.90
2955;DHT22;1487;51.470;6.938;2023-07-13T11:16:38;26.00;98.80
2955;DHT22;1487;51.470;6.938;2023-07-13T11:19:37;26.60;93.20
2955;DHT22;1487;51.470;6.938;2023-07-13T11:22:15;26.40;94.20
2955;DHT22;1487;51.470;6.938;2023-07-13T11:25:00;26.70;92.20
2955;DHT22;1487;51.470;6.938;2023-07-13T11:27:35;26.90;92.50
2955;DHT22;1487;51.470;6.938;2023-07-13T11:30:32;27.50;91.50
2955;DHT22;1487;51.470;6.938;2023-07-13T11:33:11;28.20;93.30
2955;DHT22;1487;51.470;6.938;2023-07-13T11:35:51;28.60;85.40
2955;DHT22;1487;51.470;6.938;2023-07-13T11:38:20;28.50;83.30
2955;DHT22;1487;51.470;6.938;2023-07-13T11:40:51;27.70;82.60
2955;DHT22;1487;51.470;6.938;2023-07-13T11:43:19;26.70;82.20
2955;DHT22;1487;51.470;6.938;2023-07-13T11:45:49;27.10;83.70
2955;DHT22;1487;51.470;6.938;2023-07-13T11:48:23;26.90;82.80
2955;DHT22;1487;51.470;6.938;2023-07-13T11:50:57;26.00;83.90
2955;DHT22;1487;51.470;6.938;2023-07-13T11:53:28;26.50;87.40
2955;DHT22;1487;51.470;6.938;2023-07-13T11:55:57;27.10;82.80
2955;DHT22;1487;51.470;6.938;2023-07-13T11:58:25;27.60;80.30
2955;DHT22;1487;51.470;6.938;2023-07-13T12:00:53;27.40;80.10
2955;DHT22;1487;51.470;6.938;2023-07-13T12:03:23;27.50;78.70
2955;DHT22;1487;51.470;6.938;2023-07-13T12:05:59;27.60;77.00
2955;DHT22;1487;51.470;6.938;2023-07-13T12:08:26;27.30;80.00
2955;DHT22;1487;51.470;6.938;2023-07-13T12:11:00;27.50;77.90
2955;DHT22;1487;51.470;6.938;2023-07-13T12:13:36;27.70;75.60
2955;DHT22;1487;51.470;6.938;2023-07-13T12:16:12;28.30;77.30
2955;DHT22;1487;51.470;6.938;2023-07-13T12:18:39;28.30;73.30
2955;DHT22;1487;51.470;6.938;2023-07-13T12:21:13;27.00;72.80
2955;DHT22;1487;51.470;6.938;2023-07-13T12:23:44;26.20;78.60
2955;DHT22;1487;51.470;6.938;2023-07-13T12:26:12;25.80;77.70
2955;DHT22;1487;51.470;6.938;2023-07-13T12:28:46;25.40;79.50
2955;DHT22;1487;51.470;6.938;2023-07-13T12:31:30;25.90;80.30
2955;DHT22;1487;51.470;6.938;2023-07-13T12:33:59;26.40;79.80
2955;DHT22;1487;51.470;6.938;2023-07-13T12:36:30;27.00;76.90
2955;DHT22;1487;51.470;6.938;2023-07-13T12:39:00;27.70;75.00
2955;DHT22;1487;51.470;6.938;2023-07-13T12:41:32;27.60;74.20
2955;DHT22;1487;51.470;6.938;2023-07-13T12:44:00;26.60;74.50
2955;DHT22;1487;51.470;6.938;2023-07-13T12:46:27;25.60;77.70
2955;DHT22;1487;51.470;6.938;2023-07-13T12:48:57;25.10;80.10
2955;DHT22;1487;51.470;6.938;2023-07-13T12:51:26;24.70;82.50
2955;DHT22;1487;51.470;6.938;2023-07-13T12:53:58;24.10;83.30
2955;DHT22;1487;51.470;6.938;2023-07-13T12:56:32;23.90;89.50
2955;DHT22;1487;51.470;6.938;2023-07-13T12:59:02;23.50;86.40
2955;DHT22;1487;51.470;6.938;2023-07-13T13:01:34;23.20;87.40
2955;DHT22;1487;51.470;6.938;2023-07-13T13:04:03;23.00;89.50
2955;DHT22;1487;51.470;6.938;2023-07-13T13:06:32;22.70;90.90
2955;DHT22;1487;51.470;6.938;2023-07-13T13:09:01;22.50;92.30
2955;DHT22;1487;51.470;6.938;2023-07-13T13:11:31;22.30;93.30
2955;DHT22;1487;51.470;6.938;2023-07-13T13:14:00;22.10;96.80
2955;DHT22;1487;51.470;6.938;2023-07-13T13:16:31;22.00;99.90
2955;DHT22;1487;51.470;6.938;2023-07-13T13:19:08;21.90;99.90
2955;DHT22;1487;51.470;6.938;2023-07-13T13:21:37;21.70;99.90
2955;DHT22;1487;51.470;6.938;2023-07-13T13:24:08;21.60;99.90
2955;DHT22;1487;51.470;6.938;2023-07-13T13:26:37;21.60;99.90
2955;DHT22;1487;51.470;6.938;2023-07-13T13:29:11;21.60;99.90
2955;DHT22;1487;51.470;6.938;2023-07-13T13:31:39;21.70;99.90
2955;DHT22;1487;51.470;6.938;2023-07-13T13:34:09;21.70;99.90
2955;DHT22;1487;51.470;6.938;2023-07-13T13:36:36;21.80;99.90
2955;DHT22;1487;51.470;6.938;2023-07-13T13:39:10;22.00;99.90
2955;DHT22;1487;51.470;6.938;2023-07-13T13:41:44;22.30;99.90
2955;DHT22;1487;51.470;6.938;2023-07-13T13:44:17;23.10;99.90
2955;DHT22;1487;51.470;6.938;2023-07-13T13:46:46;23.90;99.90
2955;DHT22;1487;51.470;6.938;2023-07-13T13:49:15;24.50;99.90
2955;DHT22;1487;51.470;6.938;2023-07-13T13:51:43;25.00;99.90
2955;DHT22;1487;51.470;6.938;2023-07-13T13:54:12;25.20;99.90
2955;DHT22;1487;51.470;6.938;2023-07-13T13:56:41;25.10;99.90
2955;DHT22;1487;51.470;6.938;2023-07-13T13:59:10;25.10;99.90
2955;DHT22;1487;51.470;6.938;2023-07-13T14:01:37;24.70;99.90
2955;DHT22;1487;51.470;6.938;2023-07-13T14:04:04;24.20;99.90
2955;DHT22;1487;51.470;6.938;2023-07-13T14:06:32;23.90;99.90
2955;DHT22;1487;51.470;6.938;2023-07-13T14:08:59;23.70;99.90
2955;DHT22;1487;51.470;6.938;2023-07-13T14:11:26;24.10;99.90
2955;DHT22;1487;51.470;6.938;2023-07-13T14:13:56;24.60;99.90
2955;DHT22;1487;51.470;6.938;2023-07-13T14:16:28;25.00;99.90
2955;DHT22;1487;51.470;6.938;2023-07-13T14:18:57;25.60;99.90
2955;DHT22;1487;51.470;6.938;2023-07-13T14:21:26;25.50;99.90
2955;DHT22;1487;51.470;6.938;2023-07-13T14:23:53;25.00;99.90
2955;DHT22;1487;51.470;6.938;2023-07-13T14:26:22;24.70;99.90
2955;DHT22;1487;51.470;6.938;2023-07-13T14:28:52;24.20;99.90
2955;DHT22;1487;51.470;6.938;2023-07-13T14:31:21;24.20;99.90
2955;DHT22;1487;51.470;6.938;2023-07-13T14:33:50;23.90;99.90
2955;DHT22;1487;51.470;6.938;2023-07-13T14:36:25;23.60;99.90
2955;DHT22;1487;51.470;6.938;2023-07-13T14:38:53;23.20;99.90
2955;DHT22;1487;51.470;6.938;2023-07-13T14:41:20;23.00;99.90
2955;DHT22;1487;51.470;6.938;2023-07-13T14:43:47;23.00;99.90
2955;DHT22;1487;51.470;6.938;2023-07-13T14:46:28;23.10;99.90
2955;DHT22;1487;51.470;6.938;2023-07-13T14:49:01;23.10;99.90
2955;DHT22;1487;51.470;6.938;2023-07-13T14:51:29;23.00;99.90
2955;DHT22;1487;51.470;6.938;2023-07-13T14:53:57;23.20;99.90
2955;DHT22;1487;51.470;6.938;2023-07-13T14:56:25;24.00;99.90
2955;DHT22;1487;51.470;6.938;2023-07-13T14:58:51;24.80;99.90
2955;DHT22;1487;51.470;6.938;2023-07-13T15:01:20;25.60;99.90
2955;DHT22;1487;51.470;6.938;2023-07-13T15:03:50;25.70;99.90
2955;DHT22;1487;51.470;6.938;2023-07-13T15:06:19;25.40;99.90
2955;DHT22;1487;51.470;6.938;2023-07-13T15:08:46;24.90;99.90
2955;DHT22;1487;51.470;6.938;2023-07-13T15:11:13;24.50;99.90
2955;DHT22;1487;51.470;6.938;2023-07-13T15:13:41;24.20;99.90
2955;DHT22;1487;51.470;6.938;2023-07-13T15:16:15;23.90;99.90
2955;DHT22;1487;51.470;6.938;2023-07-13T15:18:44;23.60;99.90
2955;DHT22;1487;51.470;6.938;2023-07-13T15:21:16;23.30;99.90
2955;DHT22;1487;51.470;6.938;2023-07-13T15:23:46;23.00;99.90
2955;DHT22;1487;51.470;6.938;2023-07-13T15:26:14;22.80;99.90
2955;DHT22;1487;51.470;6.938;2023-07-13T15:28:41;22.60;99.90
2955;DHT22;1487;51.470;6.938;2023-07-13T15:31:19;22.50;99.90
2955;DHT22;1487;51.470;6.938;2023-07-13T15:33:47;22.30;99.90
2955;DHT22;1487;51.470;6.938;2023-07-13T15:36:15;21.40;99.90
2955;DHT22;1487;51.470;6.938;2023-07-13T15:38:42;20.20;99.90
2955;DHT22;1487;51.470;6.938;2023-07-13T15:41:16;19.40;99.90
2955;DHT22;1487;51.470;6.938;2023-07-13T15:43:43;18.90;99.90
2955;DHT22;1487;51.470;6.938;2023-07-13T15:46:10;18.60;99.90
2955;DHT22;1487;51.470;6.938;2023-07-13T15:48:37;18.20;99.90
2955;DHT22;1487;51.470;6.938;2023-07-13T15:51:08;18.00;99.90
2955;DHT22;1487;51.470;6.938;2023-07-13T15:53:38;18.10;99.90
2955;DHT22;1487;51.470;6.938;2023-07-13T15:56:17;17.90;99.90
2955;DHT22;1487;51.470;6.938;2023-07-13T15:58:44;17.70;99.90
2955;DHT22;1487;51.470;6.938;2023-07-13T16:01:12;17.70;99.90
2955;DHT22;1487;51.470;6.938;2023-07-13T16:03:40;17.60;99.90
2955;DHT22;1487;51.470;6.938;2023-07-13T16:06:14;17.50;99.90
2955;DHT22;1487;51.470;6.938;2023-07-13T16:08:43;17.60;99.90
2955;DHT22;1487;51.470;6.938;2023-07-13T16:11:17;17.60;99.90
2955;DHT22;1487;51.470;6.938;2023-07-13T16:13:46;17.70;99.90
2955;DHT22;1487;51.470;6.938;2023-07-13T16:16:13;17.80;99.90
2955;DHT22;1487;51.470;6.938;2023-07-13T16:18:41;17.80;99.90